Algosoo — VGJD — position and weather

sailwx.info

Track history (hours):
 
Tides and Currents Weather Stations Pressure Air Temp Water Temp Dewpoint Dewpoint Depression Visibility Wind Speed Wind Dir Waves Ship Positions

Algosoo

Last reported at 2015-May-06 05:34 UTC. Time now 2015-May-06 06:26 UTC.
Position N 46°42' W 092°01'.

Length 223 m; draft 6.8 m.

Type: Cargo ship. MMSI: 316001799.

Date/timePositionNaut miles runAvg speedWind from/ knotsBaromVisibWave heightAir tempDewpointWater temp
2015-May-06 05:34N 46°42' W 092°01'0 0.0
2015-May-06 04:33N 46°42' W 092°01'0 0.0
2015-May-06 03:33N 46°42' W 092°01'0 0.0
2015-May-06 02:33N 46°42' W 092°01'0 0.1
2015-May-06 01:33N 46°42' W 092°01'2 2.5
2015-May-06 00:33N 46°44' W 091°59'1 1.2
2015-May-05 23:33N 46°45' W 091°60'0 0.0
2015-May-05 22:33N 46°45' W 091°60'0 0.0
2015-May-05 21:33N 46°45' W 091°60'0 0.0
2015-May-05 20:33N 46°45' W 091°60'0 0.0
2015-May-05 19:33N 46°45' W 091°60'0 0.0
2015-May-05 18:33N 46°45' W 091°60'0 0.0
2015-May-05 17:33N 46°45' W 091°60'0 0.0
2015-May-05 16:33N 46°45' W 091°60'0 0.0
2015-May-05 15:33N 46°45' W 091°60'0 0.0
2015-May-05 14:33N 46°45' W 091°60'0 0.0
2015-May-05 13:33N 46°45' W 091°60'5 1.0
2015-May-05 08:33N 46°44' W 092°07'0 0.0
2015-May-05 07:34N 46°44' W 092°07'0 0.0
2015-May-05 06:33N 46°44' W 092°07'0 0.0
2015-May-05 05:33N 46°44' W 092°07'0 0.0
2015-May-05 04:32N 46°44' W 092°07'0 0.0
2015-May-05 03:33N 46°44' W 092°07'0 0.0
2015-May-05 02:32N 46°44' W 092°07'1 1.2
2015-May-05 01:33N 46°45' W 092°06'5 5.3
2015-May-05 00:33N 46°48' W 092°00'1010.5
2015-May-04 23:33N 46°52' W 091°46'313 8.6
2015-May-03 11:13N 46°21' W 084°12'9 5.7
2015-May-03 09:33N 46°12' W 084°07'8 8.0
2015-May-03 08:29N 46°05' W 084°01'8 8.4
2015-May-03 07:32N 45°59' W 083°53'1010.0
2015-May-03 06:33N 45°51' W 083°45'  
2015-Apr-29 23:21N 42°30' W 079°55'1 0.0
2015-Apr-27 19:32N 42°29' W 079°54'  
Track history (hours):
 
Tides and Currents Weather Stations Pressure Air Temp Water Temp Dewpoint Dewpoint Depression Visibility Wind Speed Wind Dir Waves Ship Positions

Algosoo

Last reported at 2015-May-06 05:34 UTC. Time now 2015-May-06 06:26 UTC.
Position N 46°42' W 092°01'.

Length 223 m; draft 6.8 m.

Type: Cargo ship. MMSI: 316001799.

Date/timePositionNaut miles runAvg speedWind from/ knotsBaromVisibWave heightAir tempDewpointWater temp
2015-May-06 05:34N 46°42' W 092°01'0 0.0
2015-May-06 04:33N 46°42' W 092°01'0 0.0
2015-May-06 03:33N 46°42' W 092°01'0 0.0
2015-May-06 02:33N 46°42' W 092°01'0 0.1
2015-May-06 01:33N 46°42' W 092°01'2 2.5
2015-May-06 00:33N 46°44' W 091°59'1 1.2
2015-May-05 23:33N 46°45' W 091°60'0 0.0
2015-May-05 22:33N 46°45' W 091°60'0 0.0
2015-May-05 21:33N 46°45' W 091°60'0 0.0
2015-May-05 20:33N 46°45' W 091°60'0 0.0
2015-May-05 19:33N 46°45' W 091°60'0 0.0
2015-May-05 18:33N 46°45' W 091°60'0 0.0
2015-May-05 17:33N 46°45' W 091°60'0 0.0
2015-May-05 16:33N 46°45' W 091°60'0 0.0
2015-May-05 15:33N 46°45' W 091°60'0 0.0
2015-May-05 14:33N 46°45' W 091°60'0 0.0
2015-May-05 13:33N 46°45' W 091°60'5 1.0
2015-May-05 08:33N 46°44' W 092°07'0 0.0
2015-May-05 07:34N 46°44' W 092°07'0 0.0
2015-May-05 06:33N 46°44' W 092°07'0 0.0
2015-May-05 05:33N 46°44' W 092°07'0 0.0
2015-May-05 04:32N 46°44' W 092°07'0 0.0
2015-May-05 03:33N 46°44' W 092°07'0 0.0
2015-May-05 02:32N 46°44' W 092°07'1 1.2
2015-May-05 01:33N 46°45' W 092°06'5 5.3
2015-May-05 00:33N 46°48' W 092°00'1010.5
2015-May-04 23:33N 46°52' W 091°46'313 8.6
2015-May-03 11:13N 46°21' W 084°12'9 5.7
2015-May-03 09:33N 46°12' W 084°07'8 8.0
2015-May-03 08:29N 46°05' W 084°01'8 8.4
2015-May-03 07:32N 45°59' W 083°53'1010.0
2015-May-03 06:33N 45°51' W 083°45'  
2015-Apr-29 23:21N 42°30' W 079°55'1 0.0
2015-Apr-27 19:32N 42°29' W 079°54'  

Dump ship's entire track history